createdAt,value
2019-04-20T00:02:18.889Z,102159.77
2019-04-20T00:04:49.475Z,102152.67
2019-04-20T00:07:24.582Z,102151.86
2019-04-20T00:10:06.266Z,102148.58
2019-04-20T00:12:44.201Z,102152.67
2019-04-20T00:15:07.216Z,102152.06
2019-04-20T00:17:47.695Z,102151.41
2019-04-20T00:20:20.722Z,102148.88
2019-04-20T00:22:53.264Z,102148.83
2019-04-20T00:25:41.705Z,102154.36
2019-04-20T00:28:25.430Z,102151.74
2019-04-20T00:31:04.155Z,102146.13
2019-04-20T00:33:27.013Z,102148.44
2019-04-20T00:35:48.566Z,102151.75
2019-04-20T00:38:22.742Z,102148.81
2019-04-20T00:41:00.060Z,102149.97
2019-04-20T00:43:32.904Z,102147.84
2019-04-20T00:46:08.259Z,102149.19
2019-04-20T00:48:48.676Z,102153.30
2019-04-20T00:51:32.678Z,102147.63
2019-04-20T00:53:51.223Z,102150.70
2019-04-20T00:56:22.370Z,102156.83
2019-04-20T00:59:09.238Z,102147.94
2019-04-20T01:01:50.169Z,102145.81
2019-04-20T01:04:20.241Z,102143.88
2019-04-20T01:07:06.066Z,102149.75
2019-04-20T01:09:47.766Z,102142.23
2019-04-20T01:12:26.034Z,102140.77
2019-04-20T01:15:01.074Z,102144.12
2019-04-20T01:17:31.897Z,102149.43
2019-04-20T01:20:08.159Z,102142.73
2019-04-20T01:22:48.191Z,102152.12
2019-04-20T01:25:24.249Z,102147.02
2019-04-20T01:28:09.080Z,102148.50
2019-04-20T01:30:34.016Z,102146.78
2019-04-20T01:33:16.364Z,102146.72
2019-04-20T01:35:51.606Z,102148.44
2019-04-20T01:38:29.606Z,102145.66
2019-04-20T01:40:46.327Z,102148.60
2019-04-20T01:43:20.482Z,102141.23
2019-04-20T01:46:01.401Z,102142.88
2019-04-20T01:48:33.661Z,102143.60
2019-04-20T01:51:07.274Z,102149.06
2019-04-20T01:54:03.911Z,102141.78
2019-04-20T01:56:37.403Z,102150.19
2019-04-20T01:59:24.176Z,102148.23
2019-04-20T02:01:46.831Z,102149.72
2019-04-20T02:04:33.939Z,102143.41
2019-04-20T02:07:03.834Z,102146.41
2019-04-20T02:09:43.279Z,102146.02
2019-04-20T02:12:15.446Z,102143.05
2019-04-20T02:14:51.799Z,102142.48
2019-04-20T02:17:28.372Z,102143.61
2019-04-20T02:20:10.480Z,102140.83
2019-04-20T02:22:47.668Z,102138.87
2019-04-20T02:25:03.824Z,102141.78
2019-04-20T02:27:43.263Z,102144.31
2019-04-20T02:30:51.743Z,102150.25
2019-04-20T02:33:32.250Z,102147.75
2019-04-20T02:36:04.836Z,102141.48
2019-04-20T02:38:48.905Z,102146.30
2019-04-20T02:41:09.875Z,102145.73
2019-04-20T02:46:14.830Z,102143.38
2019-04-20T02:49:05.439Z,102148.13
2019-04-20T02:51:23.555Z,102146.20
2019-04-20T02:54:11.455Z,102147.84
2019-04-20T02:56:45.262Z,102149.28
2019-04-20T02:59:32.944Z,102153.16
2019-04-20T03:01:36.046Z,102154.94
2019-04-20T03:03:54.597Z,102152.43
2019-04-20T03:06:36.569Z,102151.77
2019-04-20T03:09:22.482Z,102155.64
2019-04-20T03:14:24.018Z,102146.94
2019-04-20T03:17:08.736Z,102151.48
2019-04-20T03:19:29.984Z,102152.93
2019-04-20T03:22:19.194Z,102155.03
2019-04-20T03:24:50.040Z,102156.98
2019-04-20T03:27:20.910Z,102153.88
2019-04-20T03:30:40.258Z,102154.59
2019-04-20T03:35:29.880Z,102150.30
2019-04-20T03:38:00.170Z,102145.81
2019-04-20T03:40:24.452Z,102143.92
2019-04-20T03:42:46.535Z,102152.27
2019-04-20T03:45:22.663Z,102145.48
2019-04-20T03:48:06.147Z,102148.61
2019-04-20T03:50:49.202Z,102147.19
2019-04-20T03:53:22.976Z,102149.91
2019-04-20T03:55:56.414Z,102149.80
2019-04-20T03:58:37.850Z,102153.23
2019-04-20T04:01:43.091Z,102158.45
2019-04-20T04:04:05.185Z,102149.64
2019-04-20T04:06:29.561Z,102143.91
2019-04-20T04:09:10.114Z,102147.03
2019-04-20T04:11:48.952Z,102150.44
2019-04-20T04:14:07.107Z,102148.81
2019-04-20T04:16:45.775Z,102148.41
2019-04-20T04:19:21.521Z,102152.83
2019-04-20T04:22:04.177Z,102149.52
2019-04-20T04:24:31.603Z,102151.87
2019-04-20T04:27:09.270Z,102153.97
2019-04-20T04:29:52.379Z,102152.37
2019-04-20T04:32:46.931Z,102148.81
2019-04-20T04:35:09.220Z,102145.09
2019-04-20T04:37:45.910Z,102141.09
2019-04-20T04:40:31.702Z,102141.75
2019-04-20T04:42:58.428Z,102143.22
2019-04-20T04:45:14.510Z,102149.28
2019-04-20T04:47:47.333Z,102150.05
2019-04-20T04:50:24.890Z,102151.91
2019-04-20T04:53:04.502Z,102160.77
2019-04-20T04:55:42.945Z,102157.98
2019-04-20T04:58:04.492Z,102152.08
2019-04-20T05:00:38.840Z,102153.59
2019-04-20T05:03:28.495Z,102147.45
2019-04-20T05:06:06.562Z,102145.34
2019-04-20T05:08:31.720Z,102145.88
2019-04-20T05:11:01.005Z,102147.77
2019-04-20T05:13:43.924Z,102149.67
2019-04-20T05:16:27.628Z,102150.52
2019-04-20T05:19:11.915Z,102151.67
2019-04-20T05:22:01.314Z,102151.95
2019-04-20T05:24:33.808Z,102156.91
2019-04-20T05:27:17.702Z,102156.61
2019-04-20T05:29:32.455Z,102155.87
2019-04-20T05:32:07.898Z,102154.47
2019-04-20T05:34:58.165Z,102155.80
2019-04-20T05:37:57.358Z,102153.69
2019-04-20T05:40:13.979Z,102151.97
2019-04-20T05:42:44.189Z,102151.56
2019-04-20T05:45:16.676Z,102148.09
2019-04-20T05:47:48.546Z,102147.34
2019-04-20T05:50:27.625Z,102146.77
2019-04-20T05:53:07.253Z,102147.34
2019-04-20T05:55:40.031Z,102152.63
2019-04-20T05:58:17.931Z,102156.56
2019-04-20T06:00:56.803Z,102153.17
2019-04-20T06:03:23.346Z,102150.31
2019-04-20T06:06:05.125Z,102153.68
2019-04-20T06:11:09.339Z,102154.33
2019-04-20T06:13:34.792Z,102149.95
2019-04-20T06:16:18.677Z,102156.14
2019-04-20T06:18:58.220Z,102154.31
2019-04-20T06:21:52.888Z,102152.33
2019-04-20T06:24:36.310Z,102155.19
2019-04-20T06:27:16.109Z,102152.14
2019-04-20T06:29:38.067Z,102142.34
2019-04-20T06:32:17.394Z,102141.34
2019-04-20T06:34:50.094Z,102146.39
2019-04-20T06:37:21.318Z,102142.07
2019-04-20T06:39:59.083Z,102143.58
2019-04-20T06:42:23.481Z,102152.39
2019-04-20T06:45:07.064Z,102146.98
2019-04-20T06:47:39.314Z,102150.55
2019-04-20T06:50:12.858Z,102149.52
2019-04-20T06:53:01.916Z,102150.28
2019-04-20T06:55:42.973Z,102151.21
2019-04-20T06:58:28.028Z,102155.35
2019-04-20T07:00:53.441Z,102149.56
2019-04-20T07:06:19.483Z,102143.39
2019-04-20T07:11:04.354Z,102141.09
2019-04-20T07:13:29.778Z,102143.97
2019-04-20T07:16:21.635Z,102143.16
2019-04-20T07:19:07.644Z,102151.75
2019-04-20T07:22:01.881Z,102145.78
2019-04-20T07:24:38.467Z,102145.81
2019-04-20T07:27:03.960Z,102140.69
2019-04-20T07:29:41.114Z,102124.56
2019-04-20T07:32:07.621Z,102133.81
2019-04-20T07:34:51.327Z,102133.48
2019-04-20T07:37:46.637Z,102128.87
2019-04-20T07:40:02.676Z,102131.48
2019-04-20T07:42:34.833Z,102130.41
2019-04-20T07:45:16.433Z,102132.64
2019-04-20T07:47:46.591Z,102135.52
2019-04-20T07:50:12.910Z,102137.17
2019-04-20T07:52:42.877Z,102141.46
2019-04-20T07:57:55.026Z,102133.33
2019-04-20T08:00:48.440Z,102137.48
2019-04-20T08:03:24.693Z,102130.72
2019-04-20T08:05:46.776Z,102123.48
2019-04-20T08:08:37.699Z,102123.78
2019-04-20T08:11:00.754Z,102119.64
2019-04-20T08:13:49.030Z,102117.34
2019-04-20T08:16:25.834Z,102128.02
2019-04-20T08:18:55.761Z,102121.73
2019-04-20T08:21:29.395Z,102114.90
2019-04-20T08:24:02.604Z,102112.90
2019-04-20T08:26:23.102Z,102108.25
2019-04-20T08:29:01.550Z,102108.77
2019-04-20T08:31:47.373Z,102111.77
2019-04-20T08:37:05.948Z,102112.81
2019-04-20T08:39:55.541Z,102108.70
2019-04-20T08:42:16.214Z,102106.16
2019-04-20T08:45:03.608Z,102095.86
2019-04-20T08:47:37.938Z,102100.59
2019-04-20T08:55:29.906Z,102087.30
2019-04-20T08:57:45.132Z,102082.23
2019-04-20T09:00:28.867Z,102084.86
2019-04-20T09:03:07.892Z,102077.47
2019-04-20T09:05:47.645Z,102073.44
2019-04-20T09:08:16.127Z,102072.62
2019-04-20T09:10:59.815Z,102076.06
2019-04-20T09:13:40.781Z,102065.55
2019-04-20T09:16:13.128Z,102070.44
2019-04-20T09:18:57.898Z,102066.31
2019-04-20T09:21:51.027Z,102059.39
2019-04-20T09:24:52.797Z,102065.39
2019-04-20T09:27:21.876Z,102060.67
2019-04-20T09:33:14.530Z,102057.23
2019-04-20T09:35:47.364Z,102051.84
2019-04-20T09:38:29.993Z,102055.43
2019-04-20T09:41:09.115Z,102056.36
2019-04-20T09:43:30.412Z,102060.80
2019-04-20T09:46:06.677Z,102063.48
2019-04-20T09:48:42.647Z,102059.03
2019-04-20T09:51:30.762Z,102053.63
2019-04-20T09:54:12.513Z,102052.76
2019-04-20T09:57:09.179Z,102050.47
2019-04-20T09:59:57.465Z,102059.91
2019-04-20T10:02:31.023Z,102058.14
2019-04-20T10:05:17.759Z,102053.17
2019-04-20T10:08:06.749Z,102054.59
2019-04-20T10:10:41.718Z,102044.38
2019-04-20T10:13:15.392Z,102041.16
2019-04-20T10:15:59.692Z,102047.00
2019-04-20T10:18:45.475Z,102038.12
2019-04-20T10:21:23.713Z,102043.92
2019-04-20T10:27:08.275Z,102026.00
2019-04-20T10:29:47.581Z,102018.08
2019-04-20T10:32:37.703Z,102019.28
2019-04-20T10:35:23.338Z,102022.98
2019-04-20T10:38:11.464Z,102022.19
2019-04-20T10:41:04.987Z,102025.00
2019-04-20T10:43:49.018Z,102016.91
2019-04-20T10:46:31.155Z,102022.91
2019-04-20T10:49:13.645Z,102014.08
2019-04-20T10:51:51.361Z,102014.06
2019-04-20T10:54:24.729Z,102011.50
2019-04-20T10:56:57.792Z,102004.41
2019-04-20T10:59:31.755Z,102009.23
2019-04-20T11:02:05.801Z,102006.89
2019-04-20T11:04:38.815Z,102006.22
2019-04-20T11:07:12.516Z,101996.67
2019-04-20T11:09:46.979Z,102003.94
2019-04-20T11:12:20.134Z,101995.98
2019-04-20T11:14:54.209Z,102000.35
2019-04-20T11:17:29.787Z,101997.94
2019-04-20T11:20:01.550Z,101993.03
2019-04-20T11:22:34.738Z,101980.89
2019-04-20T11:25:08.379Z,101991.15
2019-04-20T11:27:40.906Z,101985.50
2019-04-20T11:30:16.127Z,101979.03
2019-04-20T11:32:49.669Z,101978.82
2019-04-20T11:35:27.786Z,101980.08
2019-04-20T11:37:57.461Z,101973.86
2019-04-20T11:40:30.824Z,101971.56
2019-04-20T11:43:03.943Z,101967.36
2019-04-20T11:45:36.813Z,101962.13
2019-04-20T11:48:09.635Z,101957.20
2019-04-20T11:50:43.378Z,101958.32
2019-04-20T11:53:17.471Z,101950.84
2019-04-20T11:55:52.126Z,101945.87
2019-04-20T11:58:26.100Z,101944.72
2019-04-20T12:01:08.532Z,101945.98
2019-04-20T12:03:47.825Z,101939.03
2019-04-20T12:06:10.492Z,101940.82
2019-04-20T12:08:44.323Z,101943.08
2019-04-20T12:11:26.496Z,101941.37
2019-04-20T12:13:54.519Z,101936.66
2019-04-20T12:16:27.819Z,101938.23
2019-04-20T12:19:02.316Z,101931.20
2019-04-20T12:21:35.008Z,101924.02
2019-04-20T12:24:07.707Z,101917.52
2019-04-20T12:26:40.612Z,101922.81
2019-04-20T12:29:16.211Z,101922.97
2019-04-20T12:31:51.101Z,101920.52
2019-04-20T12:34:24.555Z,101907.19
2019-04-20T12:36:58.412Z,101902.61
2019-04-20T12:39:31.354Z,101907.94
2019-04-20T12:42:08.128Z,101898.58
2019-04-20T12:44:41.818Z,101898.33
2019-04-20T12:47:14.595Z,101894.73
2019-04-20T12:49:47.586Z,101896.80
2019-04-20T12:52:20.726Z,101889.69
2019-04-20T12:54:54.487Z,101895.52
2019-04-20T12:57:28.874Z,101886.55
2019-04-20T13:00:03.566Z,101879.18
2019-04-20T13:02:37.551Z,101881.88
2019-04-20T13:05:11.546Z,101870.82
2019-04-20T13:07:49.314Z,101875.83
2019-04-20T13:10:21.433Z,101878.37
2019-04-20T13:13:04.950Z,101878.17
2019-04-20T13:15:44.593Z,101877.00
2019-04-20T13:18:23.329Z,101876.05
2019-04-20T13:20:58.166Z,101882.76
2019-04-20T13:23:31.076Z,101885.07
2019-04-20T13:26:05.862Z,101874.58
2019-04-20T13:28:39.062Z,101873.75
2019-04-20T13:31:11.933Z,101862.53
2019-04-20T13:33:45.322Z,101866.94
2019-04-20T13:36:18.215Z,101860.76
2019-04-20T13:38:51.934Z,101860.82
2019-04-20T13:41:25.035Z,101862.54
2019-04-20T13:44:00.104Z,101863.48
2019-04-20T13:46:33.339Z,101861.97
2019-04-20T13:49:07.092Z,101856.48
2019-04-20T13:51:40.961Z,101845.12
2019-04-20T13:54:17.992Z,101839.61
2019-04-20T13:56:50.445Z,101839.61
2019-04-20T13:59:35.167Z,101833.81
2019-04-20T14:02:12.967Z,101829.66
2019-04-20T14:04:56.992Z,101829.66
2019-04-20T14:07:31.400Z,101834.57
2019-04-20T14:10:05.868Z,101825.72
2019-04-20T14:12:50.399Z,101827.43
2019-04-20T14:15:13.647Z,101821.58
2019-04-20T14:17:46.940Z,101821.58
2019-04-20T14:20:22.153Z,101817.80
2019-04-20T14:22:55.197Z,101830.81
2019-04-20T14:25:29.005Z,101824.88
2019-04-20T14:28:02.832Z,101817.16
2019-04-20T14:30:38.013Z,101818.47
2019-04-20T14:33:10.702Z,101813.09
2019-04-20T14:35:43.373Z,101808.18
2019-04-20T14:38:16.058Z,101812.20
2019-04-20T14:40:50.414Z,101809.39
2019-04-20T14:43:24.918Z,101797.30
2019-04-20T14:45:58.806Z,101798.23
2019-04-20T14:48:34.467Z,101799.30
2019-04-20T14:51:08.048Z,101792.64
2019-04-20T14:53:41.470Z,101792.03
2019-04-20T14:56:15.366Z,101791.72
2019-04-20T14:58:51.360Z,101783.56
2019-04-20T15:01:28.203Z,101779.34
2019-04-20T15:04:06.762Z,101778.53
2019-04-20T15:06:38.555Z,101776.42
2019-04-20T15:09:11.046Z,101772.56
2019-04-20T15:11:45.143Z,101774.67
2019-04-20T15:14:18.706Z,101768.28
2019-04-20T15:16:52.856Z,101766.72
2019-04-20T15:19:33.640Z,101762.66
2019-04-20T15:22:09.375Z,101764.06
2019-04-20T15:24:42.377Z,101763.62
2019-04-20T15:27:16.251Z,101767.26
2019-04-20T15:29:50.486Z,101762.28
2019-04-20T15:32:23.077Z,101761.70
2019-04-20T15:34:57.087Z,101770.75
2019-04-20T15:37:30.948Z,101768.25
2019-04-20T15:40:06.446Z,101756.00
2019-04-20T15:42:53.735Z,101766.48
2019-04-20T15:45:15.685Z,101761.08
2019-04-20T15:47:49.973Z,101756.94
2019-04-20T15:50:23.604Z,101758.03
2019-04-20T15:53:00.049Z,101761.38
2019-04-20T15:55:37.553Z,101759.13
2019-04-20T15:58:08.433Z,101750.45
2019-04-20T16:00:42.540Z,101746.36
2019-04-20T16:03:23.330Z,101752.66
2019-04-20T16:06:01.322Z,101754.53
2019-04-20T16:08:36.721Z,101758.48
2019-04-20T16:11:11.225Z,101749.92
2019-04-20T16:13:49.459Z,101748.23
2019-04-20T16:16:19.638Z,101744.91
2019-04-20T16:18:52.864Z,101747.30
2019-04-20T16:21:28.467Z,101749.53
2019-04-20T16:24:04.617Z,101743.33
2019-04-20T16:26:49.469Z,101741.58
2019-04-20T16:29:17.818Z,101743.41
2019-04-20T16:31:52.554Z,101742.51
2019-04-20T16:34:25.431Z,101745.17
2019-04-20T16:37:02.433Z,101758.10
2019-04-20T16:39:36.840Z,101743.91
2019-04-20T16:42:12.022Z,101747.86
2019-04-20T16:44:47.216Z,101742.92
2019-04-20T16:47:20.122Z,101742.00
2019-04-20T16:49:55.056Z,101747.77
2019-04-20T16:52:30.654Z,101747.31
2019-04-20T16:55:04.141Z,101747.72
2019-04-20T16:57:37.682Z,101748.63
2019-04-20T17:00:11.502Z,101745.45
2019-04-20T17:02:46.114Z,101734.80
2019-04-20T17:05:19.500Z,101736.52
2019-04-20T17:08:00.893Z,101735.48
2019-04-20T17:14:27.565Z,101734.97
2019-04-20T17:17:49.540Z,101730.91
2019-04-20T17:20:34.720Z,101725.48
2019-04-20T17:23:17.164Z,101724.55
2019-04-20T17:26:03.935Z,101732.44
2019-04-20T17:32:33.577Z,101730.05
2019-04-20T17:35:55.193Z,101728.61
2019-04-20T17:45:07.711Z,101724.30
2019-04-20T17:51:22.439Z,101727.05
2019-04-20T17:57:19.428Z,101729.02
2019-04-20T18:04:05.464Z,101731.87
2019-04-20T18:06:43.689Z,101738.28
2019-04-20T18:09:34.521Z,101729.93
2019-04-20T18:15:06.183Z,101740.19
2019-04-20T18:17:58.799Z,101733.58
2019-04-20T18:20:38.977Z,101739.14
2019-04-20T18:23:24.826Z,101735.73
2019-04-20T18:26:11.044Z,101736.65
2019-04-20T18:28:56.152Z,101737.80
2019-04-20T18:31:13.497Z,101735.05
2019-04-20T18:33:51.653Z,101738.03
2019-04-20T18:36:38.288Z,101737.35
2019-04-20T18:39:38.025Z,101734.11
2019-04-20T18:42:27.206Z,101733.77
2019-04-20T18:48:15.870Z,101734.87
2019-04-20T18:50:35.394Z,101733.78
2019-04-20T18:53:05.592Z,101736.73
2019-04-20T18:55:45.918Z,101735.98
2019-04-20T18:58:15.260Z,101728.47
2019-04-20T19:00:51.861Z,101726.64
2019-04-20T19:03:29.944Z,101728.29
2019-04-20T19:06:02.038Z,101733.58
2019-04-20T19:08:40.422Z,101735.56
2019-04-20T19:11:16.505Z,101732.42
2019-04-20T19:13:51.233Z,101741.04
2019-04-20T19:16:46.759Z,101742.92
2019-04-20T19:19:27.030Z,101741.68
2019-04-20T19:21:54.166Z,101736.11
2019-04-20T19:24:29.713Z,101735.11
2019-04-20T19:27:08.062Z,101734.65
2019-04-20T19:29:44.829Z,101739.47
2019-04-20T19:32:34.144Z,101735.28
2019-04-20T19:34:57.490Z,101757.41
2019-04-20T19:37:28.502Z,101752.56
2019-04-20T19:40:10.794Z,101764.06
2019-04-20T19:42:45.197Z,101769.63
2019-04-20T19:45:37.498Z,101766.45
2019-04-20T19:48:04.706Z,101766.55
2019-04-20T19:50:44.182Z,101768.50
2019-04-20T19:53:22.724Z,101772.53
2019-04-20T19:55:48.037Z,101771.98
2019-04-20T19:58:25.254Z,101766.34
2019-04-20T20:00:59.577Z,101770.31
2019-04-20T20:03:39.590Z,101770.41
2019-04-20T20:06:22.512Z,101781.88
2019-04-20T20:08:56.001Z,101773.66
2019-04-20T20:11:29.894Z,101766.02
2019-04-20T20:13:58.464Z,101766.34
2019-04-20T20:16:50.463Z,101769.70
2019-04-20T20:19:12.097Z,101775.21
2019-04-20T20:21:55.502Z,101777.22
2019-04-20T20:24:17.454Z,101781.86
2019-04-20T20:26:56.704Z,101786.19
2019-04-20T20:29:34.255Z,101790.55
2019-04-20T20:32:10.365Z,101784.56
2019-04-20T20:34:40.463Z,101784.45
2019-04-20T20:37:23.733Z,101789.86
2019-04-20T20:39:58.465Z,101792.77
2019-04-20T20:42:32.942Z,101798.98
2019-04-20T20:45:14.305Z,101801.99
2019-04-20T20:47:55.076Z,101805.41
2019-04-20T20:50:33.765Z,101805.48
2019-04-20T20:52:58.689Z,101810.26
2019-04-20T20:55:32.201Z,101808.15
2019-04-20T20:58:01.941Z,101806.80
2019-04-20T21:00:41.158Z,101806.69
2019-04-20T21:03:07.438Z,101802.53
2019-04-20T21:05:38.233Z,101800.41
2019-04-20T21:08:13.775Z,101795.41
2019-04-20T21:10:48.089Z,101796.16
2019-04-20T21:13:21.471Z,101787.16
2019-04-20T21:16:02.841Z,101793.16
2019-04-20T21:18:49.003Z,101790.84
2019-04-20T21:21:17.682Z,101797.78
2019-04-20T21:23:48.125Z,101802.70
2019-04-20T21:26:21.768Z,101798.53
2019-04-20T21:28:48.017Z,101793.91
2019-04-20T21:31:24.278Z,101796.30
2019-04-20T21:33:57.211Z,101794.38
2019-04-20T21:36:31.769Z,101802.17
2019-04-20T21:39:08.681Z,101797.22
2019-04-20T21:41:50.928Z,101799.20
2019-04-20T21:44:25.057Z,101798.95
2019-04-20T21:46:54.573Z,101794.33
2019-04-20T21:49:39.944Z,101797.25
2019-04-20T21:52:06.097Z,101796.42
2019-04-20T21:54:36.036Z,101798.93
2019-04-20T21:57:11.488Z,101790.81
2019-04-20T21:59:50.522Z,101795.81
2019-04-20T22:02:28.190Z,101796.47
2019-04-20T22:04:57.638Z,101794.62
2019-04-20T22:07:30.654Z,101793.96
2019-04-20T22:10:04.978Z,101797.20
2019-04-20T22:12:45.600Z,101801.42
2019-04-20T22:15:22.465Z,101801.42
2019-04-20T22:17:48.681Z,101798.09
2019-04-20T22:20:32.520Z,101798.78
2019-04-20T22:23:07.469Z,101796.52
2019-04-20T22:25:50.467Z,101797.06
2019-04-20T22:28:05.743Z,101793.59
2019-04-20T22:30:39.915Z,101800.07
2019-04-20T22:33:28.565Z,101794.28
2019-04-20T22:36:02.175Z,101794.47
2019-04-20T22:38:37.582Z,101793.39
2019-04-20T22:41:13.880Z,101788.34
2019-04-20T22:43:44.184Z,101790.84
2019-04-20T22:46:23.708Z,101794.54
2019-04-20T22:49:08.120Z,101790.84
2019-04-20T22:51:39.943Z,101792.20
2019-04-20T22:54:16.978Z,101791.12
2019-04-20T22:56:50.914Z,101778.11
2019-04-20T22:59:19.114Z,101780.41
2019-04-20T23:01:56.179Z,101776.30
2019-04-20T23:04:26.564Z,101773.76
2019-04-20T23:07:00.928Z,101766.58
2019-04-20T23:09:43.888Z,101767.16
2019-04-20T23:12:13.406Z,101769.77
2019-04-20T23:14:44.603Z,101760.27
2019-04-20T23:17:24.387Z,101763.78
2019-04-20T23:19:56.165Z,101755.94
2019-04-20T23:22:35.979Z,101748.50
2019-04-20T23:25:03.119Z,101749.40
2019-04-20T23:27:38.720Z,101744.44
2019-04-20T23:30:23.724Z,101739.27
2019-04-20T23:32:47.593Z,101751.45
2019-04-20T23:35:23.461Z,101752.33
2019-04-20T23:38:06.820Z,101750.78
2019-04-20T23:40:31.955Z,101741.34
2019-04-20T23:43:28.170Z,101740.76
2019-04-20T23:46:19.401Z,101737.64
2019-04-20T23:48:52.098Z,101736.83
2019-04-20T23:51:49.599Z,101735.67
2019-04-20T23:54:10.208Z,101732.63
2019-04-20T23:56:35.379Z,101734.44
2019-04-20T23:59:08.970Z,101724.98
